createdAt,value
2018-01-02T00:00:05.345Z,2.9
2018-01-02T00:01:24.984Z,2.9
2018-01-02T00:02:44.615Z,2.9
2018-01-02T00:04:14.439Z,2.9
2018-01-02T00:05:41.692Z,3
2018-01-02T00:07:03.926Z,3
2018-01-02T00:08:23.564Z,3
2018-01-02T00:09:45.783Z,3
2018-01-02T00:11:08.017Z,3
2018-01-02T00:12:32.753Z,3
2018-01-02T00:13:57.479Z,3
2018-01-02T00:15:24.701Z,3
2018-01-02T00:16:44.413Z,3.1
2018-01-02T00:18:04.075Z,3.1
2018-01-02T00:19:23.706Z,3.1
2018-01-02T00:20:50.931Z,3.1
2018-01-02T00:22:13.166Z,3.2
2018-01-02T00:23:32.825Z,3.2
2018-01-02T00:24:52.479Z,3.2
2018-01-02T00:26:14.694Z,3.2
2018-01-02T00:27:34.409Z,3.2
2018-01-02T00:28:54.090Z,3.2
2018-01-02T00:30:18.796Z,3.2
2018-01-02T00:31:38.453Z,3.2
2018-01-02T00:32:58.089Z,3.2
2018-01-02T00:34:17.797Z,3.3
2018-01-02T00:35:37.453Z,3.3
2018-01-02T00:36:59.624Z,3.3
2018-01-02T00:38:19.327Z,3.3
2018-01-02T00:39:38.953Z,3.3
2018-01-02T00:40:58.572Z,3.3
2018-01-02T00:42:20.775Z,3.3
2018-01-02T00:43:42.966Z,3.2
2018-01-02T00:45:07.694Z,3.3
2018-01-02T00:46:27.355Z,3.3
2018-01-02T00:47:47.036Z,3.3
2018-01-02T00:49:14.294Z,3.3
2018-01-02T00:50:36.492Z,3.3
2018-01-02T00:51:56.110Z,3.3
2018-01-02T00:53:15.738Z,3.3
2018-01-02T00:54:35.381Z,3.3
2018-01-02T00:55:57.560Z,3.3
2018-01-02T00:57:22.282Z,3.3
2018-01-02T00:58:41.967Z,3.3
2018-01-02T01:00:04.154Z,3.3
2018-01-02T01:01:28.832Z,3.4
2018-01-02T01:02:53.505Z,3.4
2018-01-02T01:04:25.790Z,3.4
2018-01-02T01:05:45.444Z,3.4
2018-01-02T01:07:12.748Z,3.4
2018-01-02T01:08:32.393Z,3.4
2018-01-02T01:09:57.114Z,3.4
2018-01-02T01:11:19.269Z,3.4
2018-01-02T01:12:43.963Z,3.4
2018-01-02T01:14:06.118Z,3.4
2018-01-02T01:15:25.734Z,3.4
2018-01-02T01:16:45.398Z,3.4
2018-01-02T01:18:07.582Z,3.4
2018-01-02T01:19:27.295Z,3.4
2018-01-02T01:20:49.451Z,3.4
2018-01-02T01:22:11.625Z,3.4
2018-01-02T01:23:33.777Z,3.4
2018-01-02T01:24:55.934Z,3.4
2018-01-02T01:26:18.098Z,3.5
2018-01-02T01:27:45.342Z,3.5
2018-01-02T01:29:10.023Z,3.5
2018-01-02T01:30:29.640Z,3.4
2018-01-02T01:31:51.802Z,3.4
2018-01-02T01:33:19.116Z,3.4
2018-01-02T01:34:41.323Z,3.4
2018-01-02T01:36:00.962Z,3.4
2018-01-02T01:37:20.621Z,3.4
2018-01-02T01:38:40.312Z,3.4
2018-01-02T01:39:59.937Z,3.5
2018-01-02T01:41:19.622Z,3.5
2018-01-02T01:42:39.259Z,3.4
2018-01-02T01:43:58.911Z,3.4
2018-01-02T01:45:31.245Z,3.4
2018-01-02T01:46:50.882Z,3.4
2018-01-02T01:48:13.034Z,3.3
2018-01-02T01:49:32.665Z,3.3
2018-01-02T01:50:52.332Z,3.3
2018-01-02T01:52:17.066Z,3.2
2018-01-02T01:53:39.256Z,3.2
2018-01-02T01:55:06.499Z,3.3
2018-01-02T01:56:28.714Z,3.3
2018-01-02T01:57:53.423Z,3.2
2018-01-02T01:59:18.102Z,3.2
2018-01-02T02:00:42.788Z,3.2
2018-01-02T02:02:04.997Z,3.2
2018-01-02T02:03:27.215Z,3.2
2018-01-02T02:04:49.369Z,3.2
2018-01-02T02:06:14.117Z,3.2
2018-01-02T02:07:33.752Z,3.1
2018-01-02T02:08:58.437Z,3.1
2018-01-02T02:10:23.116Z,3.1
2018-01-02T02:11:42.762Z,3.1
2018-01-02T02:13:02.409Z,3.1
2018-01-02T02:14:29.632Z,3
2018-01-02T02:15:49.252Z,3
2018-01-02T02:17:13.950Z,3
2018-01-02T02:18:33.566Z,3
2018-01-02T02:19:53.181Z,2.9
2018-01-02T02:21:22.946Z,2.9
2018-01-02T02:22:45.115Z,2.9
2018-01-02T02:24:04.748Z,2.8
2018-01-02T02:25:24.372Z,2.8
2018-01-02T02:26:46.596Z,2.7
2018-01-02T02:28:06.219Z,2.7
2018-01-02T02:29:28.374Z,2.6
2018-01-02T02:30:48.009Z,2.6
2018-01-02T02:32:07.642Z,2.6
2018-01-02T02:33:29.805Z,2.5
2018-01-02T02:34:54.498Z,2.5
2018-01-02T02:36:16.681Z,2.5
2018-01-02T02:37:41.369Z,2.5
2018-01-02T02:39:03.574Z,2.5
2018-01-02T02:40:23.196Z,2.5
2018-01-02T02:41:42.845Z,2.5
2018-01-02T02:43:02.478Z,2.5
2018-01-02T02:44:24.664Z,2.4
2018-01-02T02:45:46.874Z,2.4
2018-01-02T02:47:11.579Z,2.3
2018-01-02T02:48:33.757Z,2.3
2018-01-02T02:49:55.916Z,2.3
2018-01-02T02:51:15.540Z,2.4
2018-01-02T02:52:37.679Z,2.4
2018-01-02T02:53:59.860Z,2.4
2018-01-02T02:55:24.584Z,2.4
2018-01-02T02:56:46.753Z,2.4
2018-01-02T02:58:06.397Z,2.4
2018-01-02T02:59:26.059Z,2.4
2018-01-02T03:00:45.696Z,2.4
2018-01-02T03:02:07.868Z,2.4
2018-01-02T03:03:35.116Z,2.4
2018-01-02T03:04:54.766Z,2.5
2018-01-02T03:06:14.423Z,2.5
2018-01-02T03:07:34.061Z,2.5
2018-01-02T03:08:56.224Z,2.5
2018-01-02T03:10:18.422Z,2.5
2018-01-02T03:11:40.608Z,2.5
2018-01-02T03:13:02.792Z,2.5
2018-01-02T03:14:22.479Z,2.5
2018-01-02T03:15:47.228Z,2.5
2018-01-02T03:17:12.015Z,2.5
2018-01-02T03:18:31.684Z,2.5
2018-01-02T03:19:56.446Z,2.5
2018-01-02T03:21:21.175Z,2.5
2018-01-02T03:22:40.858Z,2.5
2018-01-02T03:24:00.482Z,2.5
2018-01-02T03:25:20.103Z,2.5
2018-01-02T03:26:42.303Z,2.5
2018-01-02T03:28:12.093Z,2.5
2018-01-02T03:29:31.795Z,2.5
